Time;durP1;ratioP1;P1;durP2;ratioP2;P2;SDS_P1;SDS_P2;PMS_P1;PMS_P2;Temp;Humidity;BMP_temperature;BMP_pressure;BME280_temperature;BME280_humidity;BME280_pressure;Samples;Min_cycle;Max_cycle;Signal;HPM_P1;HPM_P2
2023/06/18 00:04:12;;;;;;;12.85;10.85;;;;;;;;;;10063084;28;20106;-74
2023/06/18 00:09:09;;;;;;;12.68;10.30;;;;;;;;;;10060964;29;20047;-74
2023/06/18 00:14:05;;;;;;;11.55;10.45;;;;;;;;;;10054378;29;20058;-74
2023/06/18 00:19:01;;;;;;;13.65;11.05;;;;;;;;;;10058091;29;20070;-74
2023/06/18 00:23:58;;;;;;;12.43;11.18;;;;;;;;;;10062047;29;20051;-73
2023/06/18 00:28:54;;;;;;;13.60;11.68;;;;;;;;;;10060984;29;20528;-73
2023/06/18 00:33:51;;;;;;;14.20;11.95;;;;;;;;;;10050909;29;20117;-74
2023/06/18 00:38:47;;;;;;;15.93;13.18;;;;;;;;;;10068070;28;20090;-74
2023/06/18 00:43:43;;;;;;;14.10;12.70;;;;;;;;;;10053116;29;20035;-74
2023/06/18 00:48:40;;;;;;;13.40;12.10;;;;;;;;;;10059890;29;20055;-74
2023/06/18 00:53:37;;;;;;;14.27;12.95;;;;;;;;;;10055560;29;20138;-74
2023/06/18 00:58:35;;;;;;;15.23;13.80;;;;;;;;;;10063425;28;20055;-74
2023/06/18 01:03:32;;;;;;;14.93;13.43;;;;;;;;;;10062200;28;20043;-74
2023/06/18 01:08:32;;;;;;;14.75;13.35;;;;;;;;;;10068423;29;20418;-74
2023/06/18 01:13:30;;;;;;;16.25;14.20;;;;;;;;;;10066180;29;20050;-74
2023/06/18 01:18:27;;;;;;;14.10;12.77;;;;;;;;;;10057454;29;20051;-75
2023/06/18 01:23:27;;;;;;;13.93;12.65;;;;;;;;;;10065233;28;20043;-74
2023/06/18 01:28:24;;;;;;;14.60;12.85;;;;;;;;;;10050571;28;20195;-74
2023/06/18 01:33:21;;;;;;;16.35;14.75;;;;;;;;;;10049880;29;20047;-74
2023/06/18 01:38:28;;;;;;;13.43;12.15;;;;;;;;;;10067304;28;20047;-74
2023/06/18 01:43:24;;;;;;;13.82;12.43;;;;;;;;;;10055400;28;20075;-73
2023/06/18 01:48:21;;;;;;;16.60;14.98;;;;;;;;;;10058454;29;20043;-74
2023/06/18 01:53:18;;;;;;;18.27;15.15;;;;;;;;;;10057741;28;20047;-74
2023/06/18 01:58:15;;;;;;;15.18;13.68;;;;;;;;;;10066831;29;20071;-74
2023/06/18 02:03:11;;;;;;;18.17;15.13;;;;;;;;;;10064966;29;20040;-74
2023/06/18 02:08:07;;;;;;;16.02;14.52;;;;;;;;;;10072458;29;20043;-74
2023/06/18 02:13:04;;;;;;;16.38;14.82;;;;;;;;;;10064184;29;20047;-74
2023/06/18 02:18:00;;;;;;;17.35;15.55;;;;;;;;;;10048692;28;20486;-73
2023/06/18 02:22:57;;;;;;;16.10;14.40;;;;;;;;;;10071773;28;20043;-74
2023/06/18 02:27:53;;;;;;;18.10;15.07;;;;;;;;;;10070417;29;20091;-74
2023/06/18 02:32:49;;;;;;;16.05;14.48;;;;;;;;;;10066212;28;20490;-74
2023/06/18 02:37:46;;;;;;;17.25;15.57;;;;;;;;;;10055191;29;20094;-74
2023/06/18 02:42:48;;;;;;;16.52;15.00;;;;;;;;;;10061127;29;20684;-74
2023/06/18 02:47:45;;;;;;;;;;;;;;;;;;10061494;29;20103;-74
2023/06/18 02:52:42;;;;;;;16.17;14.50;;;;;;;;;;10065913;29;20489;-74
2023/06/18 02:57:39;;;;;;;16.90;15.32;;;;;;;;;;10055811;29;20567;-74
2023/06/18 03:02:35;;;;;;;17.45;15.70;;;;;;;;;;10058444;28;20134;-74
2023/06/18 03:07:35;;;;;;;18.55;16.85;;;;;;;;;;10055226;28;20419;-74
2023/06/18 03:12:31;;;;;;;17.63;15.70;;;;;;;;;;10061020;29;20095;-74
2023/06/18 03:17:28;;;;;;;17.73;16.00;;;;;;;;;;10063778;28;20434;-74
2023/06/18 03:22:25;;;;;;;18.17;16.17;;;;;;;;;;10068080;28;20055;-74
2023/06/18 03:27:22;;;;;;;17.90;16.20;;;;;;;;;;10062849;28;20102;-74
2023/06/18 03:32:21;;;;;;;20.00;18.05;;;;;;;;;;10063420;28;20466;-74
2023/06/18 03:37:17;;;;;;;18.00;16.20;;;;;;;;;;10058865;28;20043;-73
2023/06/18 03:42:14;;;;;;;18.02;16.25;;;;;;;;;;10063641;28;20231;-74
2023/06/18 03:47:10;;;;;;;18.38;16.48;;;;;;;;;;10060806;28;20146;-74
2023/06/18 03:52:06;;;;;;;19.52;17.52;;;;;;;;;;10057847;29;20047;-74
2023/06/18 03:57:04;;;;;;;18.42;16.58;;;;;;;;;;10062629;29;20093;-73
2023/06/18 04:02:00;;;;;;;19.05;17.15;;;;;;;;;;10057677;29;20638;-74
2023/06/18 04:06:57;;;;;;;18.65;16.73;;;;;;;;;;10065996;28;20055;-74
2023/06/18 04:11:54;;;;;;;18.05;16.33;;;;;;;;;;10061220;29;20055;-74
2023/06/18 04:16:51;;;;;;;20.13;18.02;;;;;;;;;;10056666;29;20086;-74
2023/06/18 04:21:48;;;;;;;18.45;16.52;;;;;;;;;;10055993;28;20541;-74
2023/06/18 04:26:44;;;;;;;20.33;18.27;;;;;;;;;;10062264;28;20063;-74
2023/06/18 04:31:41;;;;;;;18.65;16.65;;;;;;;;;;10055569;29;20079;-74
2023/06/18 04:36:37;;;;;;;20.73;18.77;;;;;;;;;;10047605;29;20075;-74
2023/06/18 04:41:34;;;;;;;18.05;16.27;;;;;;;;;;10057160;29;20557;-74
2023/06/18 04:46:30;;;;;;;19.25;17.35;;;;;;;;;;10060035;29;20475;-74
2023/06/18 04:51:26;;;;;;;19.90;17.83;;;;;;;;;;10052003;29;20048;-74
2023/06/18 04:56:22;;;;;;;19.67;17.67;;;;;;;;;;10048422;29;20047;-74
2023/06/18 05:01:20;;;;;;;19.42;17.63;;;;;;;;;;10056652;29;20670;-74
2023/06/18 05:06:16;;;;;;;17.25;15.75;;;;;;;;;;10055686;28;20101;-74
2023/06/18 05:11:13;;;;;;;17.27;15.77;;;;;;;;;;10063966;29;20051;-74
2023/06/18 05:16:09;;;;;;;17.70;16.08;;;;;;;;;;10058081;28;20043;-74
2023/06/18 05:21:06;;;;;;;18.58;16.95;;;;;;;;;;10063411;28;20371;-74
2023/06/18 05:26:02;;;;;;;17.98;15.70;;;;;;;;;;10065401;28;20082;-74
2023/06/18 05:30:59;;;;;;;16.60;15.00;;;;;;;;;;10063242;29;20046;-74
2023/06/18 05:35:55;;;;;;;16.35;14.88;;;;;;;;;;10063868;29;20039;-74
2023/06/18 05:40:51;;;;;;;15.93;14.40;;;;;;;;;;10063540;29;20048;-74
2023/06/18 05:45:48;;;;;;;15.48;14.07;;;;;;;;;;10059604;29;20048;-74
2023/06/18 05:50:44;;;;;;;15.57;14.27;;;;;;;;;;10067030;28;20086;-74
2023/06/18 05:55:40;;;;;;;15.70;14.13;;;;;;;;;;10063598;29;20110;-74
2023/06/18 06:00:36;;;;;;;15.80;14.25;;;;;;;;;;10062479;29;20051;-74
2023/06/18 06:05:33;;;;;;;14.90;13.55;;;;;;;;;;10072565;28;20106;-74
2023/06/18 06:10:29;;;;;;;15.30;13.90;;;;;;;;;;10068041;28;20510;-74
2023/06/18 06:15:25;;;;;;;15.43;13.88;;;;;;;;;;10060310;29;20497;-74
2023/06/18 06:20:22;;;;;;;14.52;13.23;;;;;;;;;;10040968;29;20084;-74
2023/06/18 06:25:19;;;;;;;14.40;13.10;;;;;;;;;;10058384;28;20055;-74
2023/06/18 06:30:15;;;;;;;13.93;12.63;;;;;;;;;;10059497;28;20047;-74
2023/06/18 06:35:11;;;;;;;13.50;12.27;;;;;;;;;;10065132;29;20109;-74
2023/06/18 06:40:08;;;;;;;13.82;12.43;;;;;;;;;;10061529;29;20040;-74
2023/06/18 06:45:05;;;;;;;14.20;12.90;;;;;;;;;;10067469;28;20050;-75
2023/06/18 06:50:01;;;;;;;16.27;12.73;;;;;;;;;;10063216;29;20054;-73
2023/06/18 06:54:57;;;;;;;13.95;12.60;;;;;;;;;;10054279;29;20061;-74
2023/06/18 06:59:54;;;;;;;12.98;11.40;;;;;;;;;;10067233;29;20056;-74
2023/06/18 07:04:50;;;;;;;12.18;11.07;;;;;;;;;;10061160;28;20086;-74
2023/06/18 07:09:47;;;;;;;13.68;11.40;;;;;;;;;;10056637;29;20058;-74
2023/06/18 07:14:43;;;;;;;12.52;10.85;;;;;;;;;;10061198;29;20055;-74
2023/06/18 07:19:39;;;;;;;12.48;11.10;;;;;;;;;;10064823;29;20051;-74
2023/06/18 07:24:36;;;;;;;11.38;10.27;;;;;;;;;;10060779;29;20114;-74
2023/06/18 07:29:32;;;;;;;10.68;9.55;;;;;;;;;;10064931;29;20055;-75
2023/06/18 07:34:32;;;;;;;10.10;9.10;;;;;;;;;;10064154;29;20453;-74
2023/06/18 07:39:28;;;;;;;9.63;8.60;;;;;;;;;;10065220;28;20043;-74
2023/06/18 07:44:25;;;;;;;9.57;8.68;;;;;;;;;;10055903;29;20051;-74
2023/06/18 07:49:21;;;;;;;9.70;8.80;;;;;;;;;;10057468;29;20093;-74
2023/06/18 07:54:18;;;;;;;9.25;8.23;;;;;;;;;;10032735;29;20380;-74
2023/06/18 07:59:14;;;;;;;10.77;9.57;;;;;;;;;;10048550;28;20043;-74
2023/06/18 08:04:11;;;;;;;9.63;8.68;;;;;;;;;;10055399;29;20043;-74
2023/06/18 08:09:07;;;;;;;10.02;9.02;;;;;;;;;;10053545;29;20106;-74
2023/06/18 08:14:04;;;;;;;10.48;9.55;;;;;;;;;;10059309;28;20039;-74
2023/06/18 08:19:00;;;;;;;9.90;9.00;;;;;;;;;;10053330;29;20715;-74
2023/06/18 08:23:57;;;;;;;10.10;9.10;;;;;;;;;;10059603;28;20506;-73
2023/06/18 08:28:53;;;;;;;10.20;9.05;;;;;;;;;;10057963;28;20047;-73
2023/06/18 08:33:50;;;;;;;9.57;8.77;;;;;;;;;;10031723;29;20047;-74
2023/06/18 08:38:46;;;;;;;10.23;9.27;;;;;;;;;;10052270;28;20462;-73
2023/06/18 08:43:43;;;;;;;9.02;8.18;;;;;;;;;;10065492;28;20604;-73
2023/06/18 08:48:49;;;;;;;9.73;8.82;;;;;;;;;;10050758;28;20044;-74
2023/06/18 08:53:55;;;;;;;10.40;8.50;;;;;;;;;;10054956;28;20079;-74
2023/06/18 08:58:52;;;;;;;9.13;7.75;;;;;;;;;;10053076;29;20079;-75
2023/06/18 09:03:49;;;;;;;8.88;7.97;;;;;;;;;;10065580;28;20094;-74
2023/06/18 09:08:46;;;;;;;9.95;8.95;;;;;;;;;;10056377;29;20498;-75
2023/06/18 09:13:43;;;;;;;8.88;7.50;;;;;;;;;;10063475;28;20058;-75
2023/06/18 09:18:40;;;;;;;12.10;9.88;;;;;;;;;;10051542;29;20458;-75
2023/06/18 09:23:36;;;;;;;8.13;7.32;;;;;;;;;;10058861;28;20070;-75
2023/06/18 09:28:32;;;;;;;8.20;7.40;;;;;;;;;;10041219;29;20107;-75
2023/06/18 09:33:33;;;;;;;8.60;7.80;;;;;;;;;;10054574;29;20044;-76
2023/06/18 09:38:40;;;;;;;9.85;8.23;;;;;;;;;;10058971;28;20071;-75
2023/06/18 09:43:37;;;;;;;9.23;8.32;;;;;;;;;;10056469;29;20058;-75
2023/06/18 09:48:39;;;;;;;8.70;7.90;;;;;;;;;;10060311;28;20462;-75
2023/06/18 09:53:36;;;;;;;8.20;7.55;;;;;;;;;;10052115;29;20059;-75
2023/06/18 09:58:39;;;;;;;9.63;8.70;;;;;;;;;;10058177;28;20220;-75
2023/06/18 10:03:36;;;;;;;8.63;7.93;;;;;;;;;;10058854;28;20070;-75
2023/06/18 10:08:33;;;;;;;10.02;9.13;;;;;;;;;;10068727;28;20582;-75
2023/06/18 10:13:29;;;;;;;9.07;8.27;;;;;;;;;;10063492;28;20047;-75
2023/06/18 10:18:26;;;;;;;9.18;8.38;;;;;;;;;;10071739;28;20094;-75
2023/06/18 10:23:24;;;;;;;9.70;8.90;;;;;;;;;;10069269;28;20083;-76
2023/06/18 10:28:20;;;;;;;9.32;8.52;;;;;;;;;;10066759;28;20095;-73
2023/06/18 10:33:16;;;;;;;9.30;8.50;;;;;;;;;;10060938;28;20051;-74
2023/06/18 10:38:13;;;;;;;9.93;9.05;;;;;;;;;;10049357;29;20086;-74
2023/06/18 10:43:09;;;;;;;9.50;8.70;;;;;;;;;;10064264;29;20784;-74
2023/06/18 10:48:12;;;;;;;9.30;8.40;;;;;;;;;;10066326;28;20810;-74
2023/06/18 10:53:24;;;;;;;9.85;8.85;;;;;;;;;;10066929;29;20529;-74
2023/06/18 10:58:20;;;;;;;;;;;;;;;;;;10058527;28;20095;-74
2023/06/18 11:03:17;;;;;;;8.43;7.70;;;;;;;;;;10062727;28;20369;-75
2023/06/18 11:08:30;;;;;;;9.88;8.90;;;;;;;;;;10063059;29;20043;-75
2023/06/18 11:13:28;;;;;;;8.88;8.18;;;;;;;;;;10041856;29;20483;-74
2023/06/18 11:18:26;;;;;;;9.02;8.18;;;;;;;;;;10057627;29;20039;-74
2023/06/18 11:23:23;;;;;;;8.98;8.27;;;;;;;;;;10067418;28;20872;-74
2023/06/18 11:28:21;;;;;;;9.00;8.30;;;;;;;;;;10067678;28;20043;-74
2023/06/18 11:33:21;;;;;;;9.18;8.48;;;;;;;;;;10067265;29;20047;-74
2023/06/18 11:38:18;;;;;;;9.17;8.37;;;;;;;;;;10068011;28;20058;-74
2023/06/18 11:43:15;;;;;;;8.32;7.50;;;;;;;;;;10054536;28;20156;-74
2023/06/18 11:48:11;;;;;;;9.40;8.52;;;;;;;;;;10060163;28;20079;-74
2023/06/18 11:53:09;;;;;;;9.45;8.65;;;;;;;;;;10055994;28;20075;-74
2023/06/18 11:58:05;;;;;;;9.23;8.40;;;;;;;;;;10057865;28;20469;-76
2023/06/18 12:03:02;;;;;;;9.15;8.27;;;;;;;;;;10056431;28;20126;-75
2023/06/18 12:08:06;;;;;;;8.80;8.10;;;;;;;;;;10053888;28;20422;-75
2023/06/18 12:13:05;;;;;;;9.65;8.75;;;;;;;;;;10064092;28;20078;-75
2023/06/18 12:18:08;;;;;;;12.18;9.93;;;;;;;;;;10060865;28;20055;-76
2023/06/18 12:23:05;;;;;;;8.95;8.20;;;;;;;;;;10051633;28;20134;-74
2023/06/18 12:28:06;;;;;;;9.15;8.25;;;;;;;;;;10048163;28;20474;-75
2023/06/18 12:33:06;;;;;;;9.80;8.98;;;;;;;;;;10063907;29;20054;-75
2023/06/18 12:38:08;;;;;;;8.70;7.93;;;;;;;;;;10058526;29;20047;-75
2023/06/18 12:43:05;;;;;;;;;;;;;;;;;;10062097;29;20528;-75
2023/06/18 12:48:18;;;;;;;8.60;7.90;;;;;;;;;;10059705;28;20330;-75
2023/06/18 12:53:25;;;;;;;9.00;8.30;;;;;;;;;;10062355;28;20044;-74
2023/06/18 12:58:22;;;;;;;8.85;8.05;;;;;;;;;;10059929;29;20136;-74
2023/06/18 13:03:19;;;;;;;9.00;8.05;;;;;;;;;;10054203;29;20039;-75
2023/06/18 13:08:17;;;;;;;9.85;8.15;;;;;;;;;;10050415;28;20047;-74
2023/06/18 13:13:13;;;;;;;8.65;7.80;;;;;;;;;;10047567;29;20520;-75
2023/06/18 13:18:11;;;;;;;7.95;7.15;;;;;;;;;;10051235;29;20114;-75
2023/06/18 13:23:08;;;;;;;8.10;7.32;;;;;;;;;;10063832;28;20054;-75
2023/06/18 13:28:07;;;;;;;9.57;7.32;;;;;;;;;;10060794;28;20114;-75
2023/06/18 13:33:03;;;;;;;7.88;7.18;;;;;;;;;;10048183;29;20047;-75
2023/06/18 13:38:02;;;;;;;8.07;7.38;;;;;;;;;;10055871;28;20043;-75
2023/06/18 13:42:58;;;;;;;8.35;7.55;;;;;;;;;;10043304;28;20580;-76
2023/06/18 13:47:55;;;;;;;8.15;7.45;;;;;;;;;;10071473;28;20110;-75
2023/06/18 13:52:52;;;;;;;8.13;7.32;;;;;;;;;;10064366;28;20059;-75
2023/06/18 13:57:48;;;;;;;8.40;7.65;;;;;;;;;;10053565;29;20102;-76
2023/06/18 14:02:45;;;;;;;7.80;7.18;;;;;;;;;;10049253;28;20410;-75
2023/06/18 14:07:41;;;;;;;7.43;6.68;;;;;;;;;;10052792;29;20048;-75
2023/06/18 14:12:38;;;;;;;7.65;6.93;;;;;;;;;;10062277;28;20093;-75
2023/06/18 14:17:35;;;;;;;7.72;7.03;;;;;;;;;;10065814;29;20517;-75
2023/06/18 14:22:31;;;;;;;7.32;6.72;;;;;;;;;;10065571;28;20043;-74
2023/06/18 14:27:28;;;;;;;8.85;6.78;;;;;;;;;;10068815;28;20114;-74
2023/06/18 14:32:24;;;;;;;7.47;6.78;;;;;;;;;;10067331;28;20039;-74
2023/06/18 14:37:23;;;;;;;8.35;7.53;;;;;;;;;;10061400;28;20039;-74
2023/06/18 14:42:20;;;;;;;8.20;7.18;;;;;;;;;;10060228;28;20441;-74
2023/06/18 14:47:16;;;;;;;7.85;7.13;;;;;;;;;;10058320;28;20732;-74
2023/06/18 14:52:12;;;;;;;7.65;6.95;;;;;;;;;;10068170;28;20740;-74
2023/06/18 14:57:09;;;;;;;8.15;7.35;;;;;;;;;;10059351;29;20051;-74
2023/06/18 15:02:06;;;;;;;10.55;8.55;;;;;;;;;;10063906;29;20433;-74
2023/06/18 15:07:22;;;;;;;7.20;6.60;;;;;;;;;;10055768;28;20082;-74
2023/06/18 15:12:18;;;;;;;7.93;7.20;;;;;;;;;;10053263;29;20517;-74
2023/06/18 15:17:15;;;;;;;9.73;7.68;;;;;;;;;;10065463;29;20510;-74
2023/06/18 15:22:11;;;;;;;8.20;7.50;;;;;;;;;;10055051;28;20083;-74
2023/06/18 15:27:08;;;;;;;8.07;7.28;;;;;;;;;;10063769;28;20082;-74
2023/06/18 15:32:04;;;;;;;8.00;7.20;;;;;;;;;;10063984;28;20074;-74
2023/06/18 15:37:00;;;;;;;8.63;7.47;;;;;;;;;;10070057;28;20051;-75
2023/06/18 15:41:57;;;;;;;7.82;7.13;;;;;;;;;;10057832;29;20579;-74
2023/06/18 15:46:53;;;;;;;8.05;7.30;;;;;;;;;;10061477;28;20493;-75
2023/06/18 15:51:49;;;;;;;8.27;7.57;;;;;;;;;;10062050;28;20465;-70
2023/06/18 15:56:48;;;;;;;9.80;8.35;;;;;;;;;;10054929;28;20126;-70
2023/06/18 16:01:48;;;;;;;8.15;7.55;;;;;;;;;;10029581;28;20056;-70
2023/06/18 16:06:44;;;;;;;8.88;8.07;;;;;;;;;;10060681;28;20047;-69
2023/06/18 16:11:41;;;;;;;8.50;7.72;;;;;;;;;;10071089;28;20047;-70
2023/06/18 16:16:40;;;;;;;8.57;7.00;;;;;;;;;;10059616;28;20058;-70
2023/06/18 16:21:43;;;;;;;8.57;7.88;;;;;;;;;;10060500;28;20093;-70
2023/06/18 16:26:48;;;;;;;8.18;7.47;;;;;;;;;;10055819;28;20050;-69
2023/06/18 16:31:46;;;;;;;8.02;7.32;;;;;;;;;;10069649;28;20103;-69
2023/06/18 16:36:45;;;;;;;7.78;7.13;;;;;;;;;;10049327;28;20047;-70
2023/06/18 16:41:45;;;;;;;8.02;7.43;;;;;;;;;;10051700;28;20129;-69
2023/06/18 16:46:47;;;;;;;7.57;6.97;;;;;;;;;;10045950;28;20051;-69
2023/06/18 16:51:47;;;;;;;7.53;6.82;;;;;;;;;;10045499;29;20568;-69
2023/06/18 16:56:48;;;;;;;8.00;7.25;;;;;;;;;;10056122;28;20134;-69
2023/06/18 17:01:50;;;;;;;7.65;7.00;;;;;;;;;;10057493;29;20059;-69
2023/06/18 17:06:50;;;;;;;7.63;6.95;;;;;;;;;;10039538;28;20588;-69
2023/06/18 17:11:50;;;;;;;7.45;6.82;;;;;;;;;;10055662;28;20058;-69
2023/06/18 17:16:47;;;;;;;8.50;7.70;;;;;;;;;;10061343;28;20802;-69
2023/06/18 17:21:51;;;;;;;8.38;6.70;;;;;;;;;;10071074;28;20053;-69
2023/06/18 17:26:48;;;;;;;9.68;7.05;;;;;;;;;;10064848;28;20075;-69
2023/06/18 17:31:45;;;;;;;7.95;7.32;;;;;;;;;;10059082;29;20047;-69
2023/06/18 17:36:41;;;;;;;8.38;7.15;;;;;;;;;;10057362;28;20082;-69
2023/06/18 17:41:38;;;;;;;7.85;7.15;;;;;;;;;;10043710;28;20052;-69
2023/06/18 17:46:41;;;;;;;8.18;7.47;;;;;;;;;;10058479;28;20047;-70
2023/06/18 17:51:44;;;;;;;8.50;7.68;;;;;;;;;;10069293;29;20058;-69
2023/06/18 17:56:41;;;;;;;8.75;7.97;;;;;;;;;;10050924;29;20069;-69
2023/06/18 18:01:38;;;;;;;8.27;7.47;;;;;;;;;;10064429;28;20050;-74
2023/06/18 18:06:34;;;;;;;7.82;7.13;;;;;;;;;;10050568;28;20047;-69
2023/06/18 18:11:31;;;;;;;10.02;7.65;;;;;;;;;;10062199;29;20118;-70
2023/06/18 18:16:27;;;;;;;8.25;7.55;;;;;;;;;;10058318;28;20043;-69
2023/06/18 18:21:23;;;;;;;8.43;7.60;;;;;;;;;;10066629;29;20044;-69
2023/06/18 18:26:20;;;;;;;8.45;7.65;;;;;;;;;;10059474;28;20698;-69
2023/06/18 18:31:34;;;;;;;8.23;7.53;;;;;;;;;;10060935;28;20048;-70
2023/06/18 18:36:33;;;;;;;8.40;7.60;;;;;;;;;;10065532;28;20513;-69
2023/06/18 18:41:30;;;;;;;7.60;6.90;;;;;;;;;;10071220;28;20047;-69
2023/06/18 18:46:26;;;;;;;8.40;6.47;;;;;;;;;;10065281;28;20605;-69
2023/06/18 18:51:23;;;;;;;7.70;6.90;;;;;;;;;;10059056;28;20090;-69
2023/06/18 18:56:19;;;;;;;8.07;7.38;;;;;;;;;;10059858;28;20429;-70
2023/06/18 19:01:15;;;;;;;8.77;8.07;;;;;;;;;;10038399;29;20074;-70
2023/06/18 19:06:12;;;;;;;7.95;7.15;;;;;;;;;;10069355;28;20051;-70
2023/06/18 19:11:08;;;;;;;8.40;7.40;;;;;;;;;;10062831;28;20524;-70
2023/06/18 19:16:04;;;;;;;8.85;7.10;;;;;;;;;;10056259;28;20059;-70
2023/06/18 19:21:01;;;;;;;7.88;7.07;;;;;;;;;;10062517;28;20553;-70
2023/06/18 19:25:57;;;;;;;8.15;7.25;;;;;;;;;;10052030;28;20058;-70
2023/06/18 19:30:54;;;;;;;8.10;7.30;;;;;;;;;;10050723;28;20117;-70
2023/06/18 19:35:50;;;;;;;10.80;8.10;;;;;;;;;;10054885;28;20122;-70
2023/06/18 19:40:46;;;;;;;9.38;7.10;;;;;;;;;;10060333;28;20067;-70
2023/06/18 19:45:47;;;;;;;7.55;6.85;;;;;;;;;;10057311;28;20510;-71
2023/06/18 19:50:43;;;;;;;8.23;7.43;;;;;;;;;;10061711;28;20509;-69
2023/06/18 19:55:40;;;;;;;8.82;8.02;;;;;;;;;;10060533;28;20063;-67
2023/06/18 20:00:38;;;;;;;8.55;7.75;;;;;;;;;;10053059;28;20053;-68
2023/06/18 20:05:35;;;;;;;7.93;7.22;;;;;;;;;;10049975;28;20467;-68
2023/06/18 20:10:32;;;;;;;9.27;7.57;;;;;;;;;;10057108;28;20054;-68
2023/06/18 20:15:29;;;;;;;8.63;7.82;;;;;;;;;;10056945;28;20568;-69
2023/06/18 20:20:26;;;;;;;8.48;7.55;;;;;;;;;;10066122;28;20094;-69
2023/06/18 20:25:22;;;;;;;8.40;7.30;;;;;;;;;;10065154;28;20105;-67
2023/06/18 20:30:21;;;;;;;8.45;7.32;;;;;;;;;;10053986;28;20466;-68
2023/06/18 20:35:18;;;;;;;8.82;7.47;;;;;;;;;;10061129;29;20329;-67
2023/06/18 20:40:15;;;;;;;9.05;7.68;;;;;;;;;;10060121;29;20596;-68
2023/06/18 20:45:11;;;;;;;8.35;7.55;;;;;;;;;;10058307;28;20086;-67
2023/06/18 20:50:07;;;;;;;8.40;7.60;;;;;;;;;;10035675;28;20102;-67
2023/06/18 20:55:06;;;;;;;7.95;7.20;;;;;;;;;;10061819;28;20043;-71
2023/06/18 21:00:02;;;;;;;10.20;8.25;;;;;;;;;;10054001;29;20051;-71
2023/06/18 21:04:59;;;;;;;8.95;7.40;;;;;;;;;;10056663;28;20055;-72
2023/06/18 21:09:55;;;;;;;9.50;7.53;;;;;;;;;;10057800;29;20085;-71
2023/06/18 21:14:54;;;;;;;8.43;7.63;;;;;;;;;;10055341;28;20053;-71
2023/06/18 21:19:50;;;;;;;8.60;7.78;;;;;;;;;;10061614;28;20133;-75
2023/06/18 21:24:46;;;;;;;7.47;6.78;;;;;;;;;;10057721;28;20055;-71
2023/06/18 21:29:42;;;;;;;7.90;7.13;;;;;;;;;;10055972;29;20518;-70
2023/06/18 21:34:39;;;;;;;7.57;6.85;;;;;;;;;;10060267;28;20066;-70
2023/06/18 21:39:35;;;;;;;8.77;7.45;;;;;;;;;;10060869;29;20047;-72
2023/06/18 21:44:32;;;;;;;8.50;7.13;;;;;;;;;;10034629;29;20120;-72
2023/06/18 21:49:35;;;;;;;7.75;6.90;;;;;;;;;;10054317;29;20481;-72
2023/06/18 21:54:50;;;;;;;8.68;7.25;;;;;;;;;;10031642;29;20051;-71
2023/06/18 21:59:47;;;;;;;9.57;7.22;;;;;;;;;;10031557;28;20141;-71
2023/06/18 22:04:43;;;;;;;8.40;7.03;;;;;;;;;;10072015;28;20070;-72
2023/06/18 22:09:40;;;;;;;8.52;7.72;;;;;;;;;;10060276;28;20055;-71
2023/06/18 22:14:36;;;;;;;8.15;7.07;;;;;;;;;;10061346;28;20505;-72
2023/06/18 22:19:34;;;;;;;8.73;7.05;;;;;;;;;;10057113;29;20047;-72
2023/06/18 22:24:30;;;;;;;8.90;7.10;;;;;;;;;;10061881;29;20391;-72
2023/06/18 22:29:27;;;;;;;9.05;6.97;;;;;;;;;;10068793;29;20043;-74
2023/06/18 22:34:23;;;;;;;8.73;7.22;;;;;;;;;;10060326;29;20699;-74
2023/06/18 22:39:36;;;;;;;8.73;7.82;;;;;;;;;;10058641;28;20534;-77
2023/06/18 22:44:34;;;;;;;7.85;7.15;;;;;;;;;;10072067;28;20067;-76
2023/06/18 22:49:30;;;;;;;9.05;7.28;;;;;;;;;;10060263;29;20442;-73
2023/06/18 22:54:27;;;;;;;8.02;7.22;;;;;;;;;;10065913;29;20490;-73
2023/06/18 22:59:23;;;;;;;7.57;6.85;;;;;;;;;;10058112;29;20039;-70
2023/06/18 23:04:19;;;;;;;8.35;7.40;;;;;;;;;;10055403;28;20585;-70
2023/06/18 23:09:16;;;;;;;11.13;8.30;;;;;;;;;;10060640;29;20103;-71
2023/06/18 23:14:16;;;;;;;9.95;7.38;;;;;;;;;;10059307;28;20179;-71
2023/06/18 23:19:14;;;;;;;9.18;7.63;;;;;;;;;;10064649;29;20055;-70
2023/06/18 23:24:10;;;;;;;7.75;7.05;;;;;;;;;;10064635;29;20039;-71
2023/06/18 23:29:10;;;;;;;7.90;7.10;;;;;;;;;;10063240;29;20046;-71
2023/06/18 23:34:07;;;;;;;8.32;7.45;;;;;;;;;;10067829;28;20083;-74
2023/06/18 23:39:03;;;;;;;7.88;7.18;;;;;;;;;;10049452;29;20127;-73
2023/06/18 23:44:00;;;;;;;8.45;7.65;;;;;;;;;;10045570;28;20040;-70
2023/06/18 23:48:58;;;;;;;7.97;7.15;;;;;;;;;;10068185;29;20071;-70
2023/06/18 23:53:54;;;;;;;8.55;7.55;;;;;;;;;;10061102;29;20035;-69
2023/06/18 23:58:51;;;;;;;7.72;7.03;;;;;;;;;;10063716;28;20130;-69
